MSC Krittika — H3RV — position and weather

sailwx.info

Track history (hours):
 
Tides and Currents Weather Stations Pressure Air Temp Water Temp Dewpoint Dewpoint Depression Visibility Wind Speed Wind Dir Waves Ship Positions

MSC Krittika

Last reported at 2014-Oct-29 22:34 UTC. Time now 2014-Oct-31 03:50 UTC.
Position N 22°24' E 113°53'.

Length 202 m; draft 6 m.

Type: Ship (hazmat cat A). MMSI: 354725000.

Date/timePositionNaut miles runAvg speedWind from/ knotsBaromVisibWave heightAir tempDewpointWater temp
2014-Oct-29 22:34N 22°24' E 113°53'4 3.7
2014-Oct-29 21:30N 22°28' E 113°52'0 0.0
2014-Oct-29 20:30N 22°28' E 113°52'0 0.0
2014-Oct-29 19:30N 22°28' E 113°52'0 0.0
2014-Oct-29 18:30N 22°28' E 113°52'0 0.0
2014-Oct-29 17:30N 22°28' E 113°52'0 0.0
2014-Oct-29 16:30N 22°28' E 113°52'0 0.0
2014-Oct-29 15:30N 22°28' E 113°52'0 0.0
2014-Oct-29 14:30N 22°28' E 113°52'0 0.0
2014-Oct-29 13:30N 22°28' E 113°52'0 0.0
2014-Oct-29 12:30N 22°28' E 113°52'0 0.0
2014-Oct-29 11:30N 22°28' E 113°52'0 0.0
2014-Oct-29 10:24N 22°28' E 113°52'0 0.0
2014-Oct-29 09:30N 22°28' E 113°52'0 0.0
2014-Oct-29 08:30N 22°28' E 113°52'0 0.0
2014-Oct-29 07:24N 22°28' E 113°52'0 0.0
2014-Oct-29 06:30N 22°28' E 113°52'0 0.0
2014-Oct-29 05:30N 22°28' E 113°52'0 0.0
2014-Oct-29 04:30N 22°28' E 113°52'0 0.0
2014-Oct-29 03:24N 22°28' E 113°52'0 0.0
2014-Oct-29 02:30N 22°28' E 113°52'0 0.0
2014-Oct-29 01:30N 22°28' E 113°52'1 0.6
2014-Oct-29 00:33N 22°28' E 113°53'24312.7
2014-Oct-28 05:29N 23°38' E 118°05'1717.2
2014-Oct-28 04:31N 23°50' E 118°18'1617.0
2014-Oct-28 03:33N 23°60' E 118°32'44012.5
2014-Oct-26 16:27N 30°33' E 122°15'1415.5
2014-Oct-26 15:31N 30°31' E 121°58'1111.3
2014-Oct-26 14:31N 30°27' E 121°46'3 3.3
2014-Oct-26 13:28N 30°25' E 121°49'1 1.6
2014-Oct-26 12:32N 30°25' E 121°51'7 5.9
2014-Oct-26 11:21N 30°18' E 121°48'1211.4
2014-Oct-26 10:16N 30°14' E 122°01'4 0.6
2014-Oct-26 03:29N 30°16' E 122°04'1 0.1
2014-Oct-25 16:20N 30°17' E 122°04'0 0.0
2014-Oct-24 04:14N 30°17' E 122°04'0 0.0
2014-Oct-24 03:26N 30°17' E 122°04'0 0.0
2014-Oct-24 02:32N 30°17' E 122°04'0 0.0
2014-Oct-22 12:11N 30°17' E 122°04'0 0.0
2014-Oct-21 06:04N 30°17' E 122°04'0 0.0
2014-Oct-21 05:22N 30°17' E 122°04'0 0.0
2014-Oct-21 03:22N 30°17' E 122°04'0 0.0
2014-Oct-20 00:16N 30°17' E 122°05'  
Track history (hours):
 
Tides and Currents Weather Stations Pressure Air Temp Water Temp Dewpoint Dewpoint Depression Visibility Wind Speed Wind Dir Waves Ship Positions

MSC Krittika

Last reported at 2014-Oct-29 22:34 UTC. Time now 2014-Oct-31 03:50 UTC.
Position N 22°24' E 113°53'.

Length 202 m; draft 6 m.

Type: Ship (hazmat cat A). MMSI: 354725000.

Date/timePositionNaut miles runAvg speedWind from/ knotsBaromVisibWave heightAir tempDewpointWater temp
2014-Oct-29 22:34N 22°24' E 113°53'4 3.7
2014-Oct-29 21:30N 22°28' E 113°52'0 0.0
2014-Oct-29 20:30N 22°28' E 113°52'0 0.0
2014-Oct-29 19:30N 22°28' E 113°52'0 0.0
2014-Oct-29 18:30N 22°28' E 113°52'0 0.0
2014-Oct-29 17:30N 22°28' E 113°52'0 0.0
2014-Oct-29 16:30N 22°28' E 113°52'0 0.0
2014-Oct-29 15:30N 22°28' E 113°52'0 0.0
2014-Oct-29 14:30N 22°28' E 113°52'0 0.0
2014-Oct-29 13:30N 22°28' E 113°52'0 0.0
2014-Oct-29 12:30N 22°28' E 113°52'0 0.0
2014-Oct-29 11:30N 22°28' E 113°52'0 0.0
2014-Oct-29 10:24N 22°28' E 113°52'0 0.0
2014-Oct-29 09:30N 22°28' E 113°52'0 0.0
2014-Oct-29 08:30N 22°28' E 113°52'0 0.0
2014-Oct-29 07:24N 22°28' E 113°52'0 0.0
2014-Oct-29 06:30N 22°28' E 113°52'0 0.0
2014-Oct-29 05:30N 22°28' E 113°52'0 0.0
2014-Oct-29 04:30N 22°28' E 113°52'0 0.0
2014-Oct-29 03:24N 22°28' E 113°52'0 0.0
2014-Oct-29 02:30N 22°28' E 113°52'0 0.0
2014-Oct-29 01:30N 22°28' E 113°52'1 0.6
2014-Oct-29 00:33N 22°28' E 113°53'24312.7
2014-Oct-28 05:29N 23°38' E 118°05'1717.2
2014-Oct-28 04:31N 23°50' E 118°18'1617.0
2014-Oct-28 03:33N 23°60' E 118°32'44012.5
2014-Oct-26 16:27N 30°33' E 122°15'1415.5
2014-Oct-26 15:31N 30°31' E 121°58'1111.3
2014-Oct-26 14:31N 30°27' E 121°46'3 3.3
2014-Oct-26 13:28N 30°25' E 121°49'1 1.6
2014-Oct-26 12:32N 30°25' E 121°51'7 5.9
2014-Oct-26 11:21N 30°18' E 121°48'1211.4
2014-Oct-26 10:16N 30°14' E 122°01'4 0.6
2014-Oct-26 03:29N 30°16' E 122°04'1 0.1
2014-Oct-25 16:20N 30°17' E 122°04'0 0.0
2014-Oct-24 04:14N 30°17' E 122°04'0 0.0
2014-Oct-24 03:26N 30°17' E 122°04'0 0.0
2014-Oct-24 02:32N 30°17' E 122°04'0 0.0
2014-Oct-22 12:11N 30°17' E 122°04'0 0.0
2014-Oct-21 06:04N 30°17' E 122°04'0 0.0
2014-Oct-21 05:22N 30°17' E 122°04'0 0.0
2014-Oct-21 03:22N 30°17' E 122°04'0 0.0
2014-Oct-20 00:16N 30°17' E 122°05'  

Dump ship's entire track history